sensor_id;sensor_type;location;lat;lon;timestamp;P1;durP1;ratioP1;P2;durP2;ratioP2
56201;SDS011;42117;50.360;3.508;2023-07-08T00:01:16;9.52;;;5.57;;
56201;SDS011;42117;50.360;3.508;2023-07-08T00:03:43;9.32;;;5.05;;
56201;SDS011;42117;50.360;3.508;2023-07-08T00:08:44;8.88;;;5.43;;
56201;SDS011;42117;50.360;3.508;2023-07-08T00:11:11;9.05;;;5.40;;
56201;SDS011;42117;50.360;3.508;2023-07-08T00:13:37;9.88;;;5.60;;
56201;SDS011;42117;50.360;3.508;2023-07-08T00:16:03;7.77;;;5.60;;
56201;SDS011;42117;50.360;3.508;2023-07-08T00:18:29;8.35;;;5.63;;
56201;SDS011;42117;50.360;3.508;2023-07-08T00:20:55;17.77;;;5.40;;
56201;SDS011;42117;50.360;3.508;2023-07-08T00:23:23;10.07;;;5.53;;
56201;SDS011;42117;50.360;3.508;2023-07-08T00:25:49;8.18;;;4.95;;
56201;SDS011;42117;50.360;3.508;2023-07-08T00:28:20;7.43;;;5.33;;
56201;SDS011;42117;50.360;3.508;2023-07-08T00:30:46;8.85;;;6.05;;
56201;SDS011;42117;50.360;3.508;2023-07-08T00:33:12;8.73;;;5.75;;
56201;SDS011;42117;50.360;3.508;2023-07-08T00:35:39;9.07;;;5.72;;
56201;SDS011;42117;50.360;3.508;2023-07-08T00:38:27;9.45;;;6.15;;
56201;SDS011;42117;50.360;3.508;2023-07-08T00:46:04;10.40;;;6.70;;
56201;SDS011;42117;50.360;3.508;2023-07-08T00:48:36;9.73;;;5.72;;
56201;SDS011;42117;50.360;3.508;2023-07-08T00:51:02;10.10;;;5.40;;
56201;SDS011;42117;50.360;3.508;2023-07-08T00:53:30;11.32;;;5.60;;
56201;SDS011;42117;50.360;3.508;2023-07-08T00:56:04;9.23;;;6.18;;
56201;SDS011;42117;50.360;3.508;2023-07-08T00:58:33;10.80;;;5.60;;
56201;SDS011;42117;50.360;3.508;2023-07-08T01:01:00;8.18;;;5.85;;
56201;SDS011;42117;50.360;3.508;2023-07-08T01:03:27;9.30;;;6.07;;
56201;SDS011;42117;50.360;3.508;2023-07-08T01:05:55;9.07;;;5.90;;
56201;SDS011;42117;50.360;3.508;2023-07-08T01:08:24;9.32;;;5.85;;
56201;SDS011;42117;50.360;3.508;2023-07-08T01:10:54;12.68;;;6.05;;
56201;SDS011;42117;50.360;3.508;2023-07-08T01:13:22;9.60;;;5.55;;
56201;SDS011;42117;50.360;3.508;2023-07-08T01:15:48;9.48;;;5.57;;
56201;SDS011;42117;50.360;3.508;2023-07-08T01:18:15;6.60;;;5.60;;
56201;SDS011;42117;50.360;3.508;2023-07-08T01:20:42;7.70;;;5.70;;
56201;SDS011;42117;50.360;3.508;2023-07-08T01:23:11;9.00;;;5.78;;
56201;SDS011;42117;50.360;3.508;2023-07-08T01:25:37;9.07;;;4.68;;
56201;SDS011;42117;50.360;3.508;2023-07-08T01:28:04;8.77;;;5.25;;
56201;SDS011;42117;50.360;3.508;2023-07-08T01:30:30;11.13;;;6.40;;
56201;SDS011;42117;50.360;3.508;2023-07-08T01:32:57;8.63;;;5.68;;
56201;SDS011;42117;50.360;3.508;2023-07-08T01:35:25;9.27;;;5.13;;
56201;SDS011;42117;50.360;3.508;2023-07-08T01:37:52;9.23;;;5.50;;
56201;SDS011;42117;50.360;3.508;2023-07-08T01:42:45;11.20;;;5.15;;
56201;SDS011;42117;50.360;3.508;2023-07-08T01:45:15;11.50;;;5.40;;
56201;SDS011;42117;50.360;3.508;2023-07-08T01:47:42;9.77;;;5.18;;
56201;SDS011;42117;50.360;3.508;2023-07-08T01:50:10;8.65;;;4.88;;
56201;SDS011;42117;50.360;3.508;2023-07-08T01:52:37;8.52;;;5.07;;
56201;SDS011;42117;50.360;3.508;2023-07-08T01:55:03;11.00;;;6.10;;
56201;SDS011;42117;50.360;3.508;2023-07-08T01:57:29;9.95;;;5.18;;
56201;SDS011;42117;50.360;3.508;2023-07-08T01:59:55;9.35;;;5.40;;
56201;SDS011;42117;50.360;3.508;2023-07-08T02:02:21;10.55;;;5.47;;
56201;SDS011;42117;50.360;3.508;2023-07-08T02:04:49;10.30;;;5.85;;
56201;SDS011;42117;50.360;3.508;2023-07-08T02:07:15;7.90;;;5.70;;
56201;SDS011;42117;50.360;3.508;2023-07-08T02:09:41;9.50;;;5.35;;
56201;SDS011;42117;50.360;3.508;2023-07-08T02:12:07;7.65;;;5.68;;
56201;SDS011;42117;50.360;3.508;2023-07-08T02:14:33;9.05;;;5.90;;
56201;SDS011;42117;50.360;3.508;2023-07-08T02:16:59;7.97;;;5.70;;
56201;SDS011;42117;50.360;3.508;2023-07-08T02:19:26;12.93;;;6.27;;
56201;SDS011;42117;50.360;3.508;2023-07-08T02:21:52;12.07;;;5.90;;
56201;SDS011;42117;50.360;3.508;2023-07-08T02:24:19;9.77;;;5.40;;
56201;SDS011;42117;50.360;3.508;2023-07-08T02:26:45;7.15;;;5.65;;
56201;SDS011;42117;50.360;3.508;2023-07-08T02:29:12;10.98;;;5.95;;
56201;SDS011;42117;50.360;3.508;2023-07-08T02:31:38;7.72;;;5.90;;
56201;SDS011;42117;50.360;3.508;2023-07-08T02:34:04;10.52;;;6.43;;
56201;SDS011;42117;50.360;3.508;2023-07-08T02:36:30;11.63;;;5.82;;
56201;SDS011;42117;50.360;3.508;2023-07-08T02:38:56;8.57;;;6.18;;
56201;SDS011;42117;50.360;3.508;2023-07-08T02:41:22;7.95;;;6.07;;
56201;SDS011;42117;50.360;3.508;2023-07-08T02:43:50;10.55;;;6.40;;
56201;SDS011;42117;50.360;3.508;2023-07-08T02:46:16;11.05;;;6.32;;
56201;SDS011;42117;50.360;3.508;2023-07-08T02:48:42;8.45;;;6.25;;
56201;SDS011;42117;50.360;3.508;2023-07-08T02:51:08;8.80;;;6.22;;
56201;SDS011;42117;50.360;3.508;2023-07-08T02:53:35;8.52;;;6.32;;
56201;SDS011;42117;50.360;3.508;2023-07-08T02:56:01;11.02;;;6.25;;
56201;SDS011;42117;50.360;3.508;2023-07-08T02:58:27;9.13;;;5.95;;
56201;SDS011;42117;50.360;3.508;2023-07-08T03:00:53;9.80;;;5.57;;
56201;SDS011;42117;50.360;3.508;2023-07-08T03:03:20;7.97;;;5.60;;
56201;SDS011;42117;50.360;3.508;2023-07-08T03:05:56;10.68;;;5.72;;
56201;SDS011;42117;50.360;3.508;2023-07-08T03:08:23;7.20;;;5.45;;
56201;SDS011;42117;50.360;3.508;2023-07-08T03:10:54;9.93;;;5.90;;
56201;SDS011;42117;50.360;3.508;2023-07-08T03:13:20;8.05;;;5.90;;
56201;SDS011;42117;50.360;3.508;2023-07-08T03:15:46;8.48;;;5.63;;
56201;SDS011;42117;50.360;3.508;2023-07-08T03:18:12;9.05;;;5.70;;
56201;SDS011;42117;50.360;3.508;2023-07-08T03:20:41;7.87;;;6.10;;
56201;SDS011;42117;50.360;3.508;2023-07-08T03:23:10;8.82;;;6.28;;
56201;SDS011;42117;50.360;3.508;2023-07-08T03:25:36;8.27;;;6.10;;
56201;SDS011;42117;50.360;3.508;2023-07-08T03:28:03;10.25;;;5.85;;
56201;SDS011;42117;50.360;3.508;2023-07-08T03:30:31;10.07;;;6.40;;
56201;SDS011;42117;50.360;3.508;2023-07-08T03:32:57;7.35;;;6.00;;
56201;SDS011;42117;50.360;3.508;2023-07-08T03:35:23;9.57;;;6.37;;
56201;SDS011;42117;50.360;3.508;2023-07-08T03:37:50;9.60;;;6.05;;
56201;SDS011;42117;50.360;3.508;2023-07-08T03:40:16;7.63;;;5.45;;
56201;SDS011;42117;50.360;3.508;2023-07-08T03:42:42;9.43;;;5.77;;
56201;SDS011;42117;50.360;3.508;2023-07-08T03:45:08;9.15;;;6.03;;
56201;SDS011;42117;50.360;3.508;2023-07-08T03:47:34;9.90;;;5.83;;
56201;SDS011;42117;50.360;3.508;2023-07-08T03:50:00;8.60;;;5.93;;
56201;SDS011;42117;50.360;3.508;2023-07-08T03:52:26;8.23;;;5.95;;
56201;SDS011;42117;50.360;3.508;2023-07-08T03:54:53;10.13;;;6.55;;
56201;SDS011;42117;50.360;3.508;2023-07-08T03:57:19;7.00;;;5.53;;
56201;SDS011;42117;50.360;3.508;2023-07-08T03:59:45;6.47;;;5.63;;
56201;SDS011;42117;50.360;3.508;2023-07-08T04:02:11;7.03;;;5.22;;
56201;SDS011;42117;50.360;3.508;2023-07-08T04:04:37;7.80;;;5.47;;
56201;SDS011;42117;50.360;3.508;2023-07-08T04:07:04;8.83;;;5.37;;
56201;SDS011;42117;50.360;3.508;2023-07-08T04:09:30;7.32;;;5.10;;
56201;SDS011;42117;50.360;3.508;2023-07-08T04:11:56;6.57;;;5.47;;
56201;SDS011;42117;50.360;3.508;2023-07-08T04:14:23;8.73;;;5.63;;
56201;SDS011;42117;50.360;3.508;2023-07-08T04:16:54;10.93;;;6.05;;
56201;SDS011;42117;50.360;3.508;2023-07-08T04:19:22;7.05;;;5.68;;
56201;SDS011;42117;50.360;3.508;2023-07-08T04:21:48;10.07;;;6.55;;
56201;SDS011;42117;50.360;3.508;2023-07-08T04:24:15;7.53;;;5.50;;
56201;SDS011;42117;50.360;3.508;2023-07-08T04:26:41;8.98;;;6.15;;
56201;SDS011;42117;50.360;3.508;2023-07-08T04:29:15;6.70;;;5.47;;
56201;SDS011;42117;50.360;3.508;2023-07-08T04:31:41;7.68;;;5.82;;
56201;SDS011;42117;50.360;3.508;2023-07-08T04:34:07;9.65;;;5.82;;
56201;SDS011;42117;50.360;3.508;2023-07-08T04:36:34;8.90;;;5.63;;
56201;SDS011;42117;50.360;3.508;2023-07-08T04:39:01;10.23;;;5.85;;
56201;SDS011;42117;50.360;3.508;2023-07-08T04:41:27;10.05;;;5.53;;
56201;SDS011;42117;50.360;3.508;2023-07-08T04:43:53;8.57;;;5.53;;
56201;SDS011;42117;50.360;3.508;2023-07-08T04:46:35;7.88;;;5.30;;
56201;SDS011;42117;50.360;3.508;2023-07-08T04:49:07;8.13;;;5.30;;
56201;SDS011;42117;50.360;3.508;2023-07-08T04:51:37;7.32;;;5.18;;
56201;SDS011;42117;50.360;3.508;2023-07-08T04:54:03;10.10;;;5.50;;
56201;SDS011;42117;50.360;3.508;2023-07-08T04:56:39;9.00;;;5.43;;
56201;SDS011;42117;50.360;3.508;2023-07-08T04:59:07;8.25;;;5.45;;
56201;SDS011;42117;50.360;3.508;2023-07-08T05:01:33;6.00;;;5.38;;
56201;SDS011;42117;50.360;3.508;2023-07-08T05:04:00;9.80;;;5.90;;
56201;SDS011;42117;50.360;3.508;2023-07-08T05:06:26;9.43;;;6.27;;
56201;SDS011;42117;50.360;3.508;2023-07-08T05:08:52;11.70;;;5.90;;
56201;SDS011;42117;50.360;3.508;2023-07-08T05:11:18;8.10;;;5.55;;
56201;SDS011;42117;50.360;3.508;2023-07-08T05:13:44;10.63;;;6.30;;
56201;SDS011;42117;50.360;3.508;2023-07-08T05:16:10;7.97;;;5.97;;
56201;SDS011;42117;50.360;3.508;2023-07-08T05:18:36;8.82;;;5.50;;
56201;SDS011;42117;50.360;3.508;2023-07-08T05:21:02;9.52;;;6.03;;
56201;SDS011;42117;50.360;3.508;2023-07-08T05:23:28;10.17;;;5.90;;
56201;SDS011;42117;50.360;3.508;2023-07-08T05:25:54;9.93;;;6.10;;
56201;SDS011;42117;50.360;3.508;2023-07-08T05:28:20;25.50;;;6.20;;
56201;SDS011;42117;50.360;3.508;2023-07-08T05:30:51;7.55;;;5.45;;
56201;SDS011;42117;50.360;3.508;2023-07-08T05:33:18;7.43;;;5.43;;
56201;SDS011;42117;50.360;3.508;2023-07-08T05:35:45;7.10;;;5.32;;
56201;SDS011;42117;50.360;3.508;2023-07-08T05:38:11;7.43;;;5.80;;
56201;SDS011;42117;50.360;3.508;2023-07-08T05:40:37;8.90;;;5.20;;
56201;SDS011;42117;50.360;3.508;2023-07-08T05:43:03;6.93;;;5.20;;
56201;SDS011;42117;50.360;3.508;2023-07-08T05:45:29;7.93;;;5.30;;
56201;SDS011;42117;50.360;3.508;2023-07-08T05:47:55;6.53;;;5.10;;
56201;SDS011;42117;50.360;3.508;2023-07-08T05:50:21;6.97;;;5.35;;
56201;SDS011;42117;50.360;3.508;2023-07-08T05:52:47;6.20;;;5.60;;
56201;SDS011;42117;50.360;3.508;2023-07-08T05:55:13;8.43;;;5.77;;
56201;SDS011;42117;50.360;3.508;2023-07-08T05:57:39;9.70;;;5.78;;
56201;SDS011;42117;50.360;3.508;2023-07-08T06:00:05;8.73;;;5.65;;
56201;SDS011;42117;50.360;3.508;2023-07-08T06:02:32;9.40;;;5.57;;
56201;SDS011;42117;50.360;3.508;2023-07-08T06:04:58;8.68;;;6.50;;
56201;SDS011;42117;50.360;3.508;2023-07-08T06:07:24;7.97;;;5.68;;
56201;SDS011;42117;50.360;3.508;2023-07-08T06:09:50;8.57;;;6.47;;
56201;SDS011;42117;50.360;3.508;2023-07-08T06:12:16;6.68;;;5.70;;
56201;SDS011;42117;50.360;3.508;2023-07-08T06:14:42;11.35;;;5.43;;
56201;SDS011;42117;50.360;3.508;2023-07-08T06:17:08;7.20;;;5.65;;
56201;SDS011;42117;50.360;3.508;2023-07-08T06:19:34;9.63;;;6.10;;
56201;SDS011;42117;50.360;3.508;2023-07-08T06:22:00;10.40;;;6.55;;
56201;SDS011;42117;50.360;3.508;2023-07-08T06:24:26;7.82;;;6.00;;
56201;SDS011;42117;50.360;3.508;2023-07-08T06:26:52;7.97;;;6.18;;
56201;SDS011;42117;50.360;3.508;2023-07-08T06:29:19;8.48;;;6.32;;
56201;SDS011;42117;50.360;3.508;2023-07-08T06:31:45;7.50;;;5.60;;
56201;SDS011;42117;50.360;3.508;2023-07-08T06:34:11;7.30;;;5.88;;
56201;SDS011;42117;50.360;3.508;2023-07-08T06:36:37;6.45;;;5.75;;
56201;SDS011;42117;50.360;3.508;2023-07-08T06:39:03;6.75;;;5.72;;
56201;SDS011;42117;50.360;3.508;2023-07-08T06:41:32;7.50;;;5.82;;
56201;SDS011;42117;50.360;3.508;2023-07-08T06:43:58;7.40;;;5.05;;
56201;SDS011;42117;50.360;3.508;2023-07-08T06:46:24;7.72;;;5.10;;
56201;SDS011;42117;50.360;3.508;2023-07-08T06:48:50;7.93;;;5.47;;
56201;SDS011;42117;50.360;3.508;2023-07-08T06:51:16;6.47;;;5.30;;
56201;SDS011;42117;50.360;3.508;2023-07-08T06:53:42;8.20;;;4.95;;
56201;SDS011;42117;50.360;3.508;2023-07-08T06:56:08;7.88;;;5.18;;
56201;SDS011;42117;50.360;3.508;2023-07-08T06:58:34;9.10;;;5.07;;
56201;SDS011;42117;50.360;3.508;2023-07-08T07:01:00;7.90;;;4.45;;
56201;SDS011;42117;50.360;3.508;2023-07-08T07:03:26;5.70;;;4.45;;
56201;SDS011;42117;50.360;3.508;2023-07-08T07:05:52;10.47;;;4.50;;
56201;SDS011;42117;50.360;3.508;2023-07-08T07:08:18;8.55;;;4.63;;
56201;SDS011;42117;50.360;3.508;2023-07-08T07:10:44;7.38;;;4.25;;
56201;SDS011;42117;50.360;3.508;2023-07-08T07:13:10;9.73;;;4.50;;
56201;SDS011;42117;50.360;3.508;2023-07-08T07:15:37;6.57;;;4.13;;
56201;SDS011;42117;50.360;3.508;2023-07-08T07:18:03;8.33;;;3.87;;
56201;SDS011;42117;50.360;3.508;2023-07-08T07:20:29;8.68;;;4.63;;
56201;SDS011;42117;50.360;3.508;2023-07-08T07:22:55;9.05;;;4.50;;
56201;SDS011;42117;50.360;3.508;2023-07-08T07:25:21;10.65;;;4.70;;
56201;SDS011;42117;50.360;3.508;2023-07-08T07:27:48;6.85;;;4.63;;
56201;SDS011;42117;50.360;3.508;2023-07-08T07:30:14;7.97;;;4.07;;
56201;SDS011;42117;50.360;3.508;2023-07-08T07:32:41;7.50;;;4.00;;
56201;SDS011;42117;50.360;3.508;2023-07-08T07:35:07;5.78;;;4.15;;
56201;SDS011;42117;50.360;3.508;2023-07-08T07:37:33;4.67;;;4.10;;
56201;SDS011;42117;50.360;3.508;2023-07-08T07:39:59;7.05;;;3.90;;
56201;SDS011;42117;50.360;3.508;2023-07-08T07:42:26;7.28;;;4.47;;
56201;SDS011;42117;50.360;3.508;2023-07-08T07:44:52;5.05;;;4.10;;
56201;SDS011;42117;50.360;3.508;2023-07-08T07:47:18;7.25;;;4.07;;
56201;SDS011;42117;50.360;3.508;2023-07-08T07:49:44;4.93;;;3.65;;
56201;SDS011;42117;50.360;3.508;2023-07-08T07:52:11;6.13;;;3.97;;
56201;SDS011;42117;50.360;3.508;2023-07-08T07:54:37;9.40;;;4.90;;
56201;SDS011;42117;50.360;3.508;2023-07-08T07:57:04;7.67;;;4.30;;
56201;SDS011;42117;50.360;3.508;2023-07-08T07:59:30;5.87;;;4.03;;
56201;SDS011;42117;50.360;3.508;2023-07-08T08:01:56;6.00;;;4.05;;
56201;SDS011;42117;50.360;3.508;2023-07-08T08:04:22;5.90;;;3.75;;
56201;SDS011;42117;50.360;3.508;2023-07-08T08:06:48;4.73;;;4.17;;
56201;SDS011;42117;50.360;3.508;2023-07-08T08:09:14;7.60;;;4.10;;
56201;SDS011;42117;50.360;3.508;2023-07-08T08:11:40;6.93;;;4.50;;
56201;SDS011;42117;50.360;3.508;2023-07-08T08:14:06;5.30;;;4.37;;
56201;SDS011;42117;50.360;3.508;2023-07-08T08:16:32;6.70;;;4.50;;
56201;SDS011;42117;50.360;3.508;2023-07-08T08:18:58;7.25;;;4.40;;
56201;SDS011;42117;50.360;3.508;2023-07-08T08:21:24;8.25;;;4.10;;
56201;SDS011;42117;50.360;3.508;2023-07-08T08:23:50;5.22;;;3.70;;
56201;SDS011;42117;50.360;3.508;2023-07-08T08:26:16;4.97;;;4.43;;
56201;SDS011;42117;50.360;3.508;2023-07-08T08:28:42;8.40;;;3.90;;
56201;SDS011;42117;50.360;3.508;2023-07-08T08:31:08;5.90;;;4.40;;
56201;SDS011;42117;50.360;3.508;2023-07-08T08:33:34;7.25;;;5.00;;
56201;SDS011;42117;50.360;3.508;2023-07-08T08:36:00;9.23;;;4.28;;
56201;SDS011;42117;50.360;3.508;2023-07-08T08:38:26;5.55;;;4.10;;
56201;SDS011;42117;50.360;3.508;2023-07-08T08:40:52;5.50;;;3.72;;
56201;SDS011;42117;50.360;3.508;2023-07-08T08:43:20;6.55;;;4.80;;
56201;SDS011;42117;50.360;3.508;2023-07-08T08:45:50;10.57;;;4.10;;
56201;SDS011;42117;50.360;3.508;2023-07-08T08:48:17;5.93;;;4.70;;
56201;SDS011;42117;50.360;3.508;2023-07-08T08:50:52;5.63;;;4.43;;
56201;SDS011;42117;50.360;3.508;2023-07-08T08:53:19;10.68;;;4.72;;
56201;SDS011;42117;50.360;3.508;2023-07-08T08:55:46;5.60;;;3.67;;
56201;SDS011;42117;50.360;3.508;2023-07-08T09:01:13;5.40;;;4.07;;
56201;SDS011;42117;50.360;3.508;2023-07-08T09:03:50;5.05;;;4.55;;
56201;SDS011;42117;50.360;3.508;2023-07-08T09:06:21;7.63;;;4.50;;
56201;SDS011;42117;50.360;3.508;2023-07-08T09:08:48;6.45;;;4.53;;
56201;SDS011;42117;50.360;3.508;2023-07-08T09:11:18;6.80;;;4.47;;
56201;SDS011;42117;50.360;3.508;2023-07-08T09:13:45;6.57;;;4.45;;
56201;SDS011;42117;50.360;3.508;2023-07-08T09:19:00;5.70;;;3.95;;
56201;SDS011;42117;50.360;3.508;2023-07-08T09:21:28;7.20;;;4.15;;
56201;SDS011;42117;50.360;3.508;2023-07-08T09:23:56;6.93;;;4.45;;
56201;SDS011;42117;50.360;3.508;2023-07-08T09:26:25;4.40;;;4.00;;
56201;SDS011;42117;50.360;3.508;2023-07-08T09:28:53;5.07;;;4.25;;
56201;SDS011;42117;50.360;3.508;2023-07-08T09:31:24;10.00;;;5.07;;
56201;SDS011;42117;50.360;3.508;2023-07-08T09:33:50;8.32;;;4.60;;
56201;SDS011;42117;50.360;3.508;2023-07-08T09:36:18;5.95;;;4.10;;
56201;SDS011;42117;50.360;3.508;2023-07-08T09:38:46;7.38;;;4.13;;
56201;SDS011;42117;50.360;3.508;2023-07-08T09:41:13;5.33;;;4.27;;
56201;SDS011;42117;50.360;3.508;2023-07-08T09:43:39;6.57;;;4.15;;
56201;SDS011;42117;50.360;3.508;2023-07-08T09:46:05;6.55;;;4.50;;
56201;SDS011;42117;50.360;3.508;2023-07-08T09:48:36;6.47;;;3.78;;
56201;SDS011;42117;50.360;3.508;2023-07-08T09:51:03;6.35;;;4.10;;
56201;SDS011;42117;50.360;3.508;2023-07-08T09:53:29;5.45;;;4.22;;
56201;SDS011;42117;50.360;3.508;2023-07-08T09:55:59;6.22;;;3.83;;
56201;SDS011;42117;50.360;3.508;2023-07-08T09:58:27;5.20;;;3.35;;
56201;SDS011;42117;50.360;3.508;2023-07-08T10:00:55;4.60;;;3.25;;
56201;SDS011;42117;50.360;3.508;2023-07-08T10:03:24;5.22;;;3.67;;
56201;SDS011;42117;50.360;3.508;2023-07-08T10:05:51;8.75;;;3.65;;
56201;SDS011;42117;50.360;3.508;2023-07-08T10:08:22;7.47;;;3.30;;
56201;SDS011;42117;50.360;3.508;2023-07-08T10:11:32;5.28;;;3.35;;
56201;SDS011;42117;50.360;3.508;2023-07-08T10:13:39;5.70;;;3.75;;
56201;SDS011;42117;50.360;3.508;2023-07-08T10:16:13;5.72;;;3.83;;
56201;SDS011;42117;50.360;3.508;2023-07-08T10:18:39;7.35;;;3.80;;
56201;SDS011;42117;50.360;3.508;2023-07-08T10:21:14;5.45;;;3.55;;
56201;SDS011;42117;50.360;3.508;2023-07-08T10:23:44;5.40;;;3.50;;
56201;SDS011;42117;50.360;3.508;2023-07-08T10:26:24;5.75;;;3.45;;
56201;SDS011;42117;50.360;3.508;2023-07-08T10:31:51;8.32;;;3.15;;
56201;SDS011;42117;50.360;3.508;2023-07-08T10:37:03;6.35;;;4.05;;
56201;SDS011;42117;50.360;3.508;2023-07-08T10:39:37;7.25;;;3.90;;
56201;SDS011;42117;50.360;3.508;2023-07-08T10:42:20;6.13;;;3.65;;
56201;SDS011;42117;50.360;3.508;2023-07-08T11:05:45;3.20;;;2.90;;
56201;SDS011;42117;50.360;3.508;2023-07-08T11:08:29;6.78;;;3.88;;
56201;SDS011;42117;50.360;3.508;2023-07-08T11:11:01;5.13;;;3.80;;
56201;SDS011;42117;50.360;3.508;2023-07-08T11:13:29;8.02;;;4.00;;
56201;SDS011;42117;50.360;3.508;2023-07-08T11:16:44;6.18;;;3.90;;
56201;SDS011;42117;50.360;3.508;2023-07-08T11:18:57;6.20;;;3.53;;
56201;SDS011;42117;50.360;3.508;2023-07-08T11:21:38;3.17;;;3.00;;
56201;SDS011;42117;50.360;3.508;2023-07-08T11:24:08;3.63;;;3.33;;
56201;SDS011;42117;50.360;3.508;2023-07-08T11:26:39;5.20;;;4.50;;
56201;SDS011;42117;50.360;3.508;2023-07-08T11:29:42;4.70;;;4.00;;
56201;SDS011;42117;50.360;3.508;2023-07-08T11:31:59;5.85;;;3.45;;
56201;SDS011;42117;50.360;3.508;2023-07-08T11:34:25;3.67;;;3.38;;
56201;SDS011;42117;50.360;3.508;2023-07-08T11:36:53;3.42;;;2.70;;
56201;SDS011;42117;50.360;3.508;2023-07-08T11:39:38;6.25;;;3.78;;
56201;SDS011;42117;50.360;3.508;2023-07-08T11:42:05;3.80;;;3.42;;
56201;SDS011;42117;50.360;3.508;2023-07-08T11:44:35;5.07;;;3.53;;
56201;SDS011;42117;50.360;3.508;2023-07-08T11:47:17;6.78;;;4.00;;
56201;SDS011;42117;50.360;3.508;2023-07-08T11:49:45;5.93;;;2.92;;
56201;SDS011;42117;50.360;3.508;2023-07-08T11:52:13;3.35;;;3.05;;
56201;SDS011;42117;50.360;3.508;2023-07-08T11:54:45;7.05;;;3.80;;
56201;SDS011;42117;50.360;3.508;2023-07-08T11:57:16;6.85;;;3.70;;
56201;SDS011;42117;50.360;3.508;2023-07-08T11:59:42;11.05;;;3.97;;
56201;SDS011;42117;50.360;3.508;2023-07-08T12:02:17;9.50;;;3.87;;
56201;SDS011;42117;50.360;3.508;2023-07-08T12:04:57;6.43;;;4.38;;
56201;SDS011;42117;50.360;3.508;2023-07-08T12:07:31;8.85;;;4.47;;
56201;SDS011;42117;50.360;3.508;2023-07-08T12:09:58;2.80;;;2.60;;
56201;SDS011;42117;50.360;3.508;2023-07-08T12:12:27;4.70;;;3.70;;
56201;SDS011;42117;50.360;3.508;2023-07-08T12:14:58;4.68;;;3.75;;
56201;SDS011;42117;50.360;3.508;2023-07-08T12:17:25;7.87;;;4.17;;
56201;SDS011;42117;50.360;3.508;2023-07-08T12:19:51;6.60;;;4.00;;
56201;SDS011;42117;50.360;3.508;2023-07-08T12:22:18;4.35;;;3.33;;
56201;SDS011;42117;50.360;3.508;2023-07-08T12:24:46;4.50;;;3.10;;
56201;SDS011;42117;50.360;3.508;2023-07-08T12:27:12;3.22;;;2.90;;
56201;SDS011;42117;50.360;3.508;2023-07-08T12:29:38;4.30;;;3.35;;
56201;SDS011;42117;50.360;3.508;2023-07-08T12:32:04;4.93;;;3.63;;
56201;SDS011;42117;50.360;3.508;2023-07-08T12:34:30;5.13;;;3.42;;
56201;SDS011;42117;50.360;3.508;2023-07-08T12:36:57;3.90;;;3.60;;
56201;SDS011;42117;50.360;3.508;2023-07-08T12:39:23;4.97;;;3.90;;
56201;SDS011;42117;50.360;3.508;2023-07-08T12:41:49;4.67;;;3.13;;
56201;SDS011;42117;50.360;3.508;2023-07-08T12:44:22;3.63;;;3.30;;
56201;SDS011;42117;50.360;3.508;2023-07-08T12:46:49;5.60;;;3.70;;
56201;SDS011;42117;50.360;3.508;2023-07-08T12:49:17;5.18;;;3.40;;
56201;SDS011;42117;50.360;3.508;2023-07-08T12:51:45;5.35;;;3.65;;
56201;SDS011;42117;50.360;3.508;2023-07-08T12:54:11;3.67;;;3.30;;
56201;SDS011;42117;50.360;3.508;2023-07-08T12:56:38;3.33;;;3.05;;
56201;SDS011;42117;50.360;3.508;2023-07-08T12:59:05;6.80;;;3.40;;
56201;SDS011;42117;50.360;3.508;2023-07-08T13:01:33;4.25;;;3.38;;
56201;SDS011;42117;50.360;3.508;2023-07-08T13:04:01;4.70;;;3.60;;
56201;SDS011;42117;50.360;3.508;2023-07-08T13:06:31;4.10;;;3.60;;
56201;SDS011;42117;50.360;3.508;2023-07-08T13:09:42;3.38;;;3.05;;
56201;SDS011;42117;50.360;3.508;2023-07-08T13:11:47;3.37;;;3.07;;
56201;SDS011;42117;50.360;3.508;2023-07-08T13:14:13;3.45;;;3.15;;
56201;SDS011;42117;50.360;3.508;2023-07-08T13:16:39;3.10;;;2.90;;
56201;SDS011;42117;50.360;3.508;2023-07-08T13:19:06;3.10;;;2.72;;
56201;SDS011;42117;50.360;3.508;2023-07-08T13:21:32;2.80;;;2.38;;
56201;SDS011;42117;50.360;3.508;2023-07-08T13:23:58;5.20;;;2.70;;
56201;SDS011;42117;50.360;3.508;2023-07-08T13:26:25;3.50;;;2.92;;
56201;SDS011;42117;50.360;3.508;2023-07-08T13:28:59;3.45;;;3.15;;
56201;SDS011;42117;50.360;3.508;2023-07-08T13:31:25;3.83;;;3.30;;
56201;SDS011;42117;50.360;3.508;2023-07-08T13:33:57;7.63;;;3.10;;
56201;SDS011;42117;50.360;3.508;2023-07-08T13:36:32;5.65;;;3.00;;
56201;SDS011;42117;50.360;3.508;2023-07-08T13:38:59;3.70;;;2.77;;
56201;SDS011;42117;50.360;3.508;2023-07-08T13:41:26;5.07;;;3.10;;
56201;SDS011;42117;50.360;3.508;2023-07-08T13:43:52;2.63;;;2.50;;
56201;SDS011;42117;50.360;3.508;2023-07-08T13:46:35;3.38;;;3.03;;
56201;SDS011;42117;50.360;3.508;2023-07-08T13:49:03;4.18;;;3.05;;
56201;SDS011;42117;50.360;3.508;2023-07-08T13:51:34;4.38;;;2.90;;
56201;SDS011;42117;50.360;3.508;2023-07-08T13:54:08;1.80;;;1.80;;
56201;SDS011;42117;50.360;3.508;2023-07-08T13:56:35;4.65;;;2.80;;
56201;SDS011;42117;50.360;3.508;2023-07-08T13:59:05;4.32;;;2.53;;
56201;SDS011;42117;50.360;3.508;2023-07-08T14:01:32;3.85;;;2.88;;
56201;SDS011;42117;50.360;3.508;2023-07-08T14:03:58;3.03;;;2.42;;
56201;SDS011;42117;50.360;3.508;2023-07-08T14:06:29;4.40;;;3.10;;
56201;SDS011;42117;50.360;3.508;2023-07-08T14:09:12;3.05;;;2.75;;
56201;SDS011;42117;50.360;3.508;2023-07-08T14:11:38;3.13;;;2.40;;
56201;SDS011;42117;50.360;3.508;2023-07-08T14:14:04;4.23;;;2.60;;
56201;SDS011;42117;50.360;3.508;2023-07-08T14:16:31;2.40;;;2.20;;
56201;SDS011;42117;50.360;3.508;2023-07-08T14:19:00;4.55;;;2.90;;
56201;SDS011;42117;50.360;3.508;2023-07-08T14:21:28;2.58;;;2.38;;
56201;SDS011;42117;50.360;3.508;2023-07-08T14:23:54;3.20;;;2.90;;
56201;SDS011;42117;50.360;3.508;2023-07-08T14:26:20;2.97;;;2.72;;
56201;SDS011;42117;50.360;3.508;2023-07-08T14:28:46;3.30;;;2.53;;
56201;SDS011;42117;50.360;3.508;2023-07-08T14:31:14;3.13;;;2.83;;
56201;SDS011;42117;50.360;3.508;2023-07-08T14:33:40;5.93;;;2.70;;
56201;SDS011;42117;50.360;3.508;2023-07-08T14:36:08;2.90;;;2.70;;
56201;SDS011;42117;50.360;3.508;2023-07-08T14:38:35;2.55;;;2.40;;
56201;SDS011;42117;50.360;3.508;2023-07-08T14:41:01;3.03;;;2.28;;
56201;SDS011;42117;50.360;3.508;2023-07-08T14:43:28;2.95;;;2.75;;
56201;SDS011;42117;50.360;3.508;2023-07-08T14:45:55;3.15;;;2.85;;
56201;SDS011;42117;50.360;3.508;2023-07-08T14:48:23;3.55;;;3.25;;
56201;SDS011;42117;50.360;3.508;2023-07-08T14:50:49;4.85;;;2.83;;
56201;SDS011;42117;50.360;3.508;2023-07-08T14:53:15;3.30;;;3.00;;
56201;SDS011;42117;50.360;3.508;2023-07-08T14:55:42;3.72;;;3.00;;
56201;SDS011;42117;50.360;3.508;2023-07-08T14:58:10;3.70;;;2.43;;
56201;SDS011;42117;50.360;3.508;2023-07-08T15:00:43;2.70;;;2.50;;
56201;SDS011;42117;50.360;3.508;2023-07-08T15:03:09;3.13;;;2.70;;
56201;SDS011;42117;50.360;3.508;2023-07-08T15:05:35;2.90;;;2.70;;
56201;SDS011;42117;50.360;3.508;2023-07-08T15:08:01;2.47;;;2.30;;
56201;SDS011;42117;50.360;3.508;2023-07-08T15:10:30;2.55;;;2.30;;
56201;SDS011;42117;50.360;3.508;2023-07-08T15:12:58;2.70;;;2.42;;
56201;SDS011;42117;50.360;3.508;2023-07-08T15:15:28;2.38;;;2.28;;
56201;SDS011;42117;50.360;3.508;2023-07-08T15:17:55;2.78;;;2.58;;
56201;SDS011;42117;50.360;3.508;2023-07-08T15:20:22;2.80;;;2.60;;
56201;SDS011;42117;50.360;3.508;2023-07-08T15:22:49;4.95;;;2.60;;
56201;SDS011;42117;50.360;3.508;2023-07-08T15:25:15;2.50;;;2.30;;
56201;SDS011;42117;50.360;3.508;2023-07-08T15:27:43;2.53;;;2.33;;
56201;SDS011;42117;50.360;3.508;2023-07-08T15:30:17;2.53;;;2.20;;
56201;SDS011;42117;50.360;3.508;2023-07-08T15:32:43;6.63;;;2.50;;